sensor_id;sensor_type;location;lat;lon;timestamp;P1;durP1;ratioP1;P2;durP2;ratioP2
48550;SDS011;34397;51.176;6.738;2023-03-01T00:01:40;7.93;;;4.43;;
48550;SDS011;34397;51.176;6.738;2023-03-01T00:04:12;7.35;;;3.75;;
48550;SDS011;34397;51.176;6.738;2023-03-01T00:06:44;9.05;;;4.65;;
48550;SDS011;34397;51.176;6.738;2023-03-01T00:09:17;6.80;;;4.25;;
48550;SDS011;34397;51.176;6.738;2023-03-01T00:11:49;6.70;;;4.00;;
48550;SDS011;34397;51.176;6.738;2023-03-01T00:14:21;10.27;;;4.85;;
48550;SDS011;34397;51.176;6.738;2023-03-01T00:16:53;9.38;;;4.35;;
48550;SDS011;34397;51.176;6.738;2023-03-01T00:19:25;8.15;;;4.38;;
48550;SDS011;34397;51.176;6.738;2023-03-01T00:21:57;7.70;;;4.32;;
48550;SDS011;34397;51.176;6.738;2023-03-01T00:24:30;7.28;;;4.55;;
48550;SDS011;34397;51.176;6.738;2023-03-01T00:27:02;6.40;;;4.23;;
48550;SDS011;34397;51.176;6.738;2023-03-01T00:29:34;7.90;;;4.57;;
48550;SDS011;34397;51.176;6.738;2023-03-01T00:32:06;8.00;;;4.40;;
48550;SDS011;34397;51.176;6.738;2023-03-01T00:34:38;7.00;;;4.43;;
48550;SDS011;34397;51.176;6.738;2023-03-01T00:37:09;8.48;;;4.15;;
48550;SDS011;34397;51.176;6.738;2023-03-01T00:39:43;7.72;;;4.45;;
48550;SDS011;34397;51.176;6.738;2023-03-01T00:42:15;10.63;;;4.70;;
48550;SDS011;34397;51.176;6.738;2023-03-01T00:44:47;8.67;;;4.57;;
48550;SDS011;34397;51.176;6.738;2023-03-01T00:47:19;6.15;;;3.83;;
48550;SDS011;34397;51.176;6.738;2023-03-01T00:49:51;8.00;;;4.53;;
48550;SDS011;34397;51.176;6.738;2023-03-01T00:52:22;7.05;;;4.50;;
48550;SDS011;34397;51.176;6.738;2023-03-01T00:54:56;7.40;;;4.47;;
48550;SDS011;34397;51.176;6.738;2023-03-01T00:57:27;7.97;;;4.47;;
48550;SDS011;34397;51.176;6.738;2023-03-01T00:59:59;6.28;;;4.35;;
48550;SDS011;34397;51.176;6.738;2023-03-01T01:02:32;6.55;;;4.15;;
48550;SDS011;34397;51.176;6.738;2023-03-01T01:05:04;7.53;;;4.63;;
48550;SDS011;34397;51.176;6.738;2023-03-01T01:07:37;7.00;;;4.43;;
48550;SDS011;34397;51.176;6.738;2023-03-01T01:10:10;10.55;;;4.65;;
48550;SDS011;34397;51.176;6.738;2023-03-01T01:12:47;8.33;;;5.10;;
48550;SDS011;34397;51.176;6.738;2023-03-01T01:15:18;5.95;;;4.65;;
48550;SDS011;34397;51.176;6.738;2023-03-01T01:17:50;6.68;;;4.50;;
48550;SDS011;34397;51.176;6.738;2023-03-01T01:20:22;8.02;;;4.88;;
48550;SDS011;34397;51.176;6.738;2023-03-01T01:22:54;9.13;;;5.10;;
48550;SDS011;34397;51.176;6.738;2023-03-01T01:25:27;9.38;;;5.05;;
48550;SDS011;34397;51.176;6.738;2023-03-01T01:27:59;6.80;;;4.30;;
48550;SDS011;34397;51.176;6.738;2023-03-01T01:30:31;6.03;;;4.30;;
48550;SDS011;34397;51.176;6.738;2023-03-01T01:33:03;5.18;;;3.95;;
48550;SDS011;34397;51.176;6.738;2023-03-01T01:35:34;6.45;;;4.30;;
48550;SDS011;34397;51.176;6.738;2023-03-01T01:38:06;6.85;;;4.32;;
48550;SDS011;34397;51.176;6.738;2023-03-01T01:40:44;6.22;;;4.00;;
48550;SDS011;34397;51.176;6.738;2023-03-01T01:43:18;7.83;;;4.53;;
48550;SDS011;34397;51.176;6.738;2023-03-01T01:45:54;8.67;;;4.33;;
48550;SDS011;34397;51.176;6.738;2023-03-01T01:48:28;6.53;;;4.20;;
48550;SDS011;34397;51.176;6.738;2023-03-01T01:51:12;8.20;;;4.37;;
48550;SDS011;34397;51.176;6.738;2023-03-01T01:53:47;7.97;;;4.60;;
48550;SDS011;34397;51.176;6.738;2023-03-01T01:56:25;9.20;;;4.83;;
48550;SDS011;34397;51.176;6.738;2023-03-01T01:58:58;6.90;;;4.90;;
48550;SDS011;34397;51.176;6.738;2023-03-01T02:01:30;6.75;;;4.00;;
48550;SDS011;34397;51.176;6.738;2023-03-01T02:04:03;8.80;;;4.85;;
48550;SDS011;34397;51.176;6.738;2023-03-01T02:06:37;10.40;;;5.10;;
48550;SDS011;34397;51.176;6.738;2023-03-01T02:09:14;7.10;;;5.00;;
48550;SDS011;34397;51.176;6.738;2023-03-01T02:11:51;8.10;;;4.87;;
48550;SDS011;34397;51.176;6.738;2023-03-01T02:14:24;7.70;;;4.87;;
48550;SDS011;34397;51.176;6.738;2023-03-01T02:16:56;8.00;;;4.97;;
48550;SDS011;34397;51.176;6.738;2023-03-01T02:19:31;7.90;;;5.07;;
48550;SDS011;34397;51.176;6.738;2023-03-01T02:22:17;8.27;;;5.20;;
48550;SDS011;34397;51.176;6.738;2023-03-01T02:24:57;6.97;;;4.77;;
48550;SDS011;34397;51.176;6.738;2023-03-01T02:27:43;7.87;;;5.07;;
48550;SDS011;34397;51.176;6.738;2023-03-01T02:30:24;11.03;;;5.17;;
48550;SDS011;34397;51.176;6.738;2023-03-01T02:32:57;8.60;;;5.43;;
48550;SDS011;34397;51.176;6.738;2023-03-01T02:35:33;9.67;;;5.10;;
48550;SDS011;34397;51.176;6.738;2023-03-01T02:38:09;10.73;;;5.50;;
48550;SDS011;34397;51.176;6.738;2023-03-01T02:40:41;11.50;;;5.47;;
48550;SDS011;34397;51.176;6.738;2023-03-01T02:43:14;9.10;;;6.17;;
48550;SDS011;34397;51.176;6.738;2023-03-01T02:45:50;8.53;;;5.47;;
48550;SDS011;34397;51.176;6.738;2023-03-01T02:48:23;9.77;;;5.77;;
48550;SDS011;34397;51.176;6.738;2023-03-01T02:51:01;8.00;;;5.57;;
48550;SDS011;34397;51.176;6.738;2023-03-01T02:53:39;13.02;;;5.90;;
48550;SDS011;34397;51.176;6.738;2023-03-01T02:56:21;7.43;;;5.27;;
48550;SDS011;34397;51.176;6.738;2023-03-01T02:58:53;9.20;;;5.78;;
48550;SDS011;34397;51.176;6.738;2023-03-01T03:01:31;9.40;;;5.77;;
48550;SDS011;34397;51.176;6.738;2023-03-01T03:04:08;9.53;;;5.50;;
48550;SDS011;34397;51.176;6.738;2023-03-01T03:06:42;11.93;;;5.73;;
48550;SDS011;34397;51.176;6.738;2023-03-01T03:09:15;9.17;;;5.23;;
48550;SDS011;34397;51.176;6.738;2023-03-01T03:11:47;9.53;;;5.67;;
48550;SDS011;34397;51.176;6.738;2023-03-01T03:14:19;10.73;;;6.20;;
48550;SDS011;34397;51.176;6.738;2023-03-01T03:16:52;10.13;;;5.88;;
48550;SDS011;34397;51.176;6.738;2023-03-01T03:19:24;11.20;;;5.90;;
48550;SDS011;34397;51.176;6.738;2023-03-01T03:21:56;9.68;;;5.97;;
48550;SDS011;34397;51.176;6.738;2023-03-01T03:27:07;9.13;;;5.77;;
48550;SDS011;34397;51.176;6.738;2023-03-01T03:29:39;11.25;;;6.82;;
48550;SDS011;34397;51.176;6.738;2023-03-01T03:32:13;9.25;;;6.18;;
48550;SDS011;34397;51.176;6.738;2023-03-01T03:34:44;10.73;;;6.37;;
48550;SDS011;34397;51.176;6.738;2023-03-01T03:37:16;11.05;;;5.63;;
48550;SDS011;34397;51.176;6.738;2023-03-01T03:40:02;10.10;;;5.10;;
48550;SDS011;34397;51.176;6.738;2023-03-01T03:45:16;9.17;;;5.67;;
48550;SDS011;34397;51.176;6.738;2023-03-01T03:47:50;9.63;;;6.03;;
48550;SDS011;34397;51.176;6.738;2023-03-01T03:50:22;12.47;;;7.17;;
48550;SDS011;34397;51.176;6.738;2023-03-01T03:52:54;10.40;;;6.40;;
48550;SDS011;34397;51.176;6.738;2023-03-01T03:55:26;10.93;;;6.65;;
48550;SDS011;34397;51.176;6.738;2023-03-01T03:58:01;15.63;;;6.57;;
48550;SDS011;34397;51.176;6.738;2023-03-01T04:00:37;11.10;;;6.80;;
48550;SDS011;34397;51.176;6.738;2023-03-01T04:03:13;10.40;;;6.33;;
48550;SDS011;34397;51.176;6.738;2023-03-01T04:05:46;10.07;;;6.33;;
48550;SDS011;34397;51.176;6.738;2023-03-01T04:08:21;9.30;;;6.10;;
48550;SDS011;34397;51.176;6.738;2023-03-01T04:10:56;9.47;;;6.30;;
48550;SDS011;34397;51.176;6.738;2023-03-01T04:13:52;10.00;;;6.57;;
48550;SDS011;34397;51.176;6.738;2023-03-01T04:16:26;13.10;;;6.73;;
48550;SDS011;34397;51.176;6.738;2023-03-01T04:18:59;9.95;;;6.60;;
48550;SDS011;34397;51.176;6.738;2023-03-01T04:21:31;11.47;;;6.70;;
48550;SDS011;34397;51.176;6.738;2023-03-01T04:24:03;10.93;;;6.82;;
48550;SDS011;34397;51.176;6.738;2023-03-01T04:26:36;10.17;;;6.30;;
48550;SDS011;34397;51.176;6.738;2023-03-01T04:29:08;11.70;;;6.70;;
48550;SDS011;34397;51.176;6.738;2023-03-01T04:31:40;11.15;;;6.45;;
48550;SDS011;34397;51.176;6.738;2023-03-01T04:34:13;11.93;;;6.32;;
48550;SDS011;34397;51.176;6.738;2023-03-01T04:36:45;10.33;;;6.33;;
48550;SDS011;34397;51.176;6.738;2023-03-01T04:39:17;10.27;;;6.75;;
48550;SDS011;34397;51.176;6.738;2023-03-01T04:41:49;13.30;;;7.18;;
48550;SDS011;34397;51.176;6.738;2023-03-01T04:44:22;12.47;;;6.90;;
48550;SDS011;34397;51.176;6.738;2023-03-01T04:46:54;11.55;;;6.70;;
48550;SDS011;34397;51.176;6.738;2023-03-01T04:49:27;12.88;;;7.03;;
48550;SDS011;34397;51.176;6.738;2023-03-01T04:51:59;9.67;;;6.90;;
48550;SDS011;34397;51.176;6.738;2023-03-01T04:54:32;12.93;;;6.90;;
48550;SDS011;34397;51.176;6.738;2023-03-01T04:57:05;14.00;;;7.17;;
48550;SDS011;34397;51.176;6.738;2023-03-01T04:59:37;11.20;;;6.55;;
48550;SDS011;34397;51.176;6.738;2023-03-01T05:02:08;10.93;;;7.10;;
48550;SDS011;34397;51.176;6.738;2023-03-01T05:04:42;11.48;;;7.10;;
48550;SDS011;34397;51.176;6.738;2023-03-01T05:07:14;11.50;;;6.40;;
48550;SDS011;34397;51.176;6.738;2023-03-01T05:09:49;11.13;;;6.83;;
48550;SDS011;34397;51.176;6.738;2023-03-01T05:12:21;10.05;;;6.60;;
48550;SDS011;34397;51.176;6.738;2023-03-01T05:14:52;10.70;;;7.03;;
48550;SDS011;34397;51.176;6.738;2023-03-01T05:17:24;10.25;;;6.75;;
48550;SDS011;34397;51.176;6.738;2023-03-01T05:19:57;12.75;;;8.02;;
48550;SDS011;34397;51.176;6.738;2023-03-01T05:22:29;14.23;;;7.60;;
48550;SDS011;34397;51.176;6.738;2023-03-01T05:25:03;13.67;;;6.93;;
48550;SDS011;34397;51.176;6.738;2023-03-01T05:27:37;9.87;;;7.10;;
48550;SDS011;34397;51.176;6.738;2023-03-01T05:30:11;10.02;;;7.07;;
48550;SDS011;34397;51.176;6.738;2023-03-01T05:32:45;11.33;;;6.87;;
48550;SDS011;34397;51.176;6.738;2023-03-01T05:35:21;12.40;;;6.90;;
48550;SDS011;34397;51.176;6.738;2023-03-01T05:37:53;12.17;;;7.17;;
48550;SDS011;34397;51.176;6.738;2023-03-01T05:40:25;11.23;;;7.00;;
48550;SDS011;34397;51.176;6.738;2023-03-01T05:42:57;12.52;;;7.32;;
48550;SDS011;34397;51.176;6.738;2023-03-01T05:45:28;11.40;;;6.88;;
48550;SDS011;34397;51.176;6.738;2023-03-01T05:48:02;13.23;;;7.23;;
48550;SDS011;34397;51.176;6.738;2023-03-01T05:50:38;16.97;;;7.40;;
48550;SDS011;34397;51.176;6.738;2023-03-01T05:53:12;13.67;;;7.67;;
48550;SDS011;34397;51.176;6.738;2023-03-01T05:55:46;13.47;;;7.47;;
48550;SDS011;34397;51.176;6.738;2023-03-01T05:58:19;12.60;;;7.90;;
48550;SDS011;34397;51.176;6.738;2023-03-01T06:00:51;11.13;;;7.20;;
48550;SDS011;34397;51.176;6.738;2023-03-01T06:03:23;16.77;;;8.48;;
48550;SDS011;34397;51.176;6.738;2023-03-01T06:05:57;12.10;;;7.88;;
48550;SDS011;34397;51.176;6.738;2023-03-01T06:08:29;12.50;;;7.47;;
48550;SDS011;34397;51.176;6.738;2023-03-01T06:11:01;12.23;;;7.63;;
48550;SDS011;34397;51.176;6.738;2023-03-01T06:13:33;18.77;;;9.18;;
48550;SDS011;34397;51.176;6.738;2023-03-01T06:16:06;15.77;;;7.55;;
48550;SDS011;34397;51.176;6.738;2023-03-01T06:18:39;12.37;;;7.30;;
48550;SDS011;34397;51.176;6.738;2023-03-01T06:21:13;12.97;;;7.80;;
48550;SDS011;34397;51.176;6.738;2023-03-01T06:23:45;11.90;;;7.40;;
48550;SDS011;34397;51.176;6.738;2023-03-01T06:26:17;12.85;;;7.90;;
48550;SDS011;34397;51.176;6.738;2023-03-01T06:28:49;11.20;;;7.50;;
48550;SDS011;34397;51.176;6.738;2023-03-01T06:31:20;14.75;;;8.60;;
48550;SDS011;34397;51.176;6.738;2023-03-01T06:33:52;11.23;;;7.55;;
48550;SDS011;34397;51.176;6.738;2023-03-01T06:38:58;13.33;;;7.77;;
48550;SDS011;34397;51.176;6.738;2023-03-01T06:41:30;14.13;;;8.23;;
48550;SDS011;34397;51.176;6.738;2023-03-01T06:44:02;12.27;;;8.00;;
48550;SDS011;34397;51.176;6.738;2023-03-01T06:46:34;12.63;;;7.32;;
48550;SDS011;34397;51.176;6.738;2023-03-01T06:49:06;15.90;;;8.20;;
48550;SDS011;34397;51.176;6.738;2023-03-01T06:51:40;13.33;;;7.93;;
48550;SDS011;34397;51.176;6.738;2023-03-01T06:54:12;12.93;;;8.03;;
48550;SDS011;34397;51.176;6.738;2023-03-01T06:56:46;12.07;;;7.88;;
48550;SDS011;34397;51.176;6.738;2023-03-01T06:59:18;13.27;;;8.47;;
48550;SDS011;34397;51.176;6.738;2023-03-01T07:01:50;12.02;;;7.53;;
48550;SDS011;34397;51.176;6.738;2023-03-01T07:04:22;14.75;;;8.10;;
48550;SDS011;34397;51.176;6.738;2023-03-01T07:06:55;15.38;;;7.88;;
48550;SDS011;34397;51.176;6.738;2023-03-01T07:09:27;13.10;;;8.20;;
48550;SDS011;34397;51.176;6.738;2023-03-01T07:11:59;17.90;;;8.27;;
48550;SDS011;34397;51.176;6.738;2023-03-01T07:14:31;11.73;;;7.85;;
48550;SDS011;34397;51.176;6.738;2023-03-01T07:17:03;13.63;;;8.27;;
48550;SDS011;34397;51.176;6.738;2023-03-01T07:19:35;12.57;;;8.32;;
48550;SDS011;34397;51.176;6.738;2023-03-01T07:22:08;12.77;;;8.57;;
48550;SDS011;34397;51.176;6.738;2023-03-01T07:24:40;13.57;;;8.07;;
48550;SDS011;34397;51.176;6.738;2023-03-01T07:27:12;14.38;;;8.55;;
48550;SDS011;34397;51.176;6.738;2023-03-01T07:29:44;14.07;;;8.88;;
48550;SDS011;34397;51.176;6.738;2023-03-01T07:32:16;16.10;;;8.75;;
48550;SDS011;34397;51.176;6.738;2023-03-01T07:34:48;14.90;;;9.13;;
48550;SDS011;34397;51.176;6.738;2023-03-01T07:37:21;14.63;;;8.63;;
48550;SDS011;34397;51.176;6.738;2023-03-01T07:39:53;14.10;;;8.60;;
48550;SDS011;34397;51.176;6.738;2023-03-01T07:42:24;14.35;;;8.50;;
48550;SDS011;34397;51.176;6.738;2023-03-01T07:44:56;14.60;;;8.73;;
48550;SDS011;34397;51.176;6.738;2023-03-01T07:47:28;15.18;;;8.82;;
48550;SDS011;34397;51.176;6.738;2023-03-01T07:50:06;14.40;;;8.73;;
48550;SDS011;34397;51.176;6.738;2023-03-01T07:52:41;16.87;;;9.30;;
48550;SDS011;34397;51.176;6.738;2023-03-01T07:55:16;17.67;;;9.60;;
48550;SDS011;34397;51.176;6.738;2023-03-01T07:57:48;12.82;;;8.43;;
48550;SDS011;34397;51.176;6.738;2023-03-01T08:00:19;14.18;;;8.23;;
48550;SDS011;34397;51.176;6.738;2023-03-01T08:02:52;15.18;;;8.70;;
48550;SDS011;34397;51.176;6.738;2023-03-01T08:05:24;14.70;;;8.00;;
48550;SDS011;34397;51.176;6.738;2023-03-01T08:07:57;12.80;;;8.55;;
48550;SDS011;34397;51.176;6.738;2023-03-01T08:10:29;13.80;;;8.27;;
48550;SDS011;34397;51.176;6.738;2023-03-01T08:13:00;26.10;;;9.38;;
48550;SDS011;34397;51.176;6.738;2023-03-01T08:15:32;14.82;;;8.32;;
48550;SDS011;34397;51.176;6.738;2023-03-01T08:18:04;14.07;;;8.73;;
48550;SDS011;34397;51.176;6.738;2023-03-01T08:20:36;13.02;;;8.60;;
48550;SDS011;34397;51.176;6.738;2023-03-01T08:23:10;14.98;;;8.63;;
48550;SDS011;34397;51.176;6.738;2023-03-01T08:25:42;14.50;;;8.83;;
48550;SDS011;34397;51.176;6.738;2023-03-01T08:28:13;15.43;;;9.05;;
48550;SDS011;34397;51.176;6.738;2023-03-01T08:30:45;17.92;;;9.20;;
48550;SDS011;34397;51.176;6.738;2023-03-01T08:33:17;14.10;;;8.23;;
48550;SDS011;34397;51.176;6.738;2023-03-01T08:35:49;13.10;;;8.73;;
48550;SDS011;34397;51.176;6.738;2023-03-01T08:38:22;18.98;;;9.07;;
48550;SDS011;34397;51.176;6.738;2023-03-01T08:40:54;14.63;;;8.40;;
48550;SDS011;34397;51.176;6.738;2023-03-01T08:43:26;15.02;;;8.90;;
48550;SDS011;34397;51.176;6.738;2023-03-01T08:45:58;11.95;;;7.60;;
48550;SDS011;34397;51.176;6.738;2023-03-01T08:48:29;14.48;;;8.57;;
48550;SDS011;34397;51.176;6.738;2023-03-01T08:51:07;13.60;;;8.55;;
48550;SDS011;34397;51.176;6.738;2023-03-01T08:53:42;15.20;;;8.90;;
48550;SDS011;34397;51.176;6.738;2023-03-01T08:56:15;17.73;;;9.53;;
48550;SDS011;34397;51.176;6.738;2023-03-01T08:58:49;11.37;;;8.03;;
48550;SDS011;34397;51.176;6.738;2023-03-01T09:01:21;15.95;;;8.18;;
48550;SDS011;34397;51.176;6.738;2023-03-01T09:03:53;14.32;;;7.50;;
48550;SDS011;34397;51.176;6.738;2023-03-01T09:06:24;13.82;;;8.18;;
48550;SDS011;34397;51.176;6.738;2023-03-01T09:08:58;15.80;;;8.45;;
48550;SDS011;34397;51.176;6.738;2023-03-01T09:11:30;15.50;;;8.27;;
48550;SDS011;34397;51.176;6.738;2023-03-01T09:14:04;12.23;;;7.60;;
48550;SDS011;34397;51.176;6.738;2023-03-01T09:16:36;15.03;;;8.13;;
48550;SDS011;34397;51.176;6.738;2023-03-01T09:19:08;13.88;;;7.85;;
48550;SDS011;34397;51.176;6.738;2023-03-01T09:21:41;12.60;;;7.90;;
48550;SDS011;34397;51.176;6.738;2023-03-01T09:24:23;14.17;;;7.67;;
48550;SDS011;34397;51.176;6.738;2023-03-01T09:26:56;15.63;;;8.33;;
48550;SDS011;34397;51.176;6.738;2023-03-01T09:29:28;11.93;;;7.72;;
48550;SDS011;34397;51.176;6.738;2023-03-01T09:32:00;13.05;;;7.75;;
48550;SDS011;34397;51.176;6.738;2023-03-01T09:34:32;16.33;;;7.63;;
48550;SDS011;34397;51.176;6.738;2023-03-01T09:37:23;15.47;;;8.53;;
48550;SDS011;34397;51.176;6.738;2023-03-01T09:39:56;10.27;;;7.35;;
48550;SDS011;34397;51.176;6.738;2023-03-01T09:42:29;13.50;;;7.67;;
48550;SDS011;34397;51.176;6.738;2023-03-01T09:45:04;14.87;;;8.00;;
48550;SDS011;34397;51.176;6.738;2023-03-01T09:47:38;14.57;;;8.50;;
48550;SDS011;34397;51.176;6.738;2023-03-01T09:52:47;11.83;;;7.37;;
48550;SDS011;34397;51.176;6.738;2023-03-01T09:55:29;13.57;;;7.27;;
48550;SDS011;34397;51.176;6.738;2023-03-01T09:58:08;13.50;;;7.27;;
48550;SDS011;34397;51.176;6.738;2023-03-01T10:01:13;10.93;;;7.23;;
48550;SDS011;34397;51.176;6.738;2023-03-01T10:04:06;12.63;;;7.00;;
48550;SDS011;34397;51.176;6.738;2023-03-01T10:06:58;11.80;;;6.83;;
48550;SDS011;34397;51.176;6.738;2023-03-01T10:09:48;11.20;;;7.37;;
48550;SDS011;34397;51.176;6.738;2023-03-01T10:12:22;11.50;;;6.93;;
48550;SDS011;34397;51.176;6.738;2023-03-01T10:14:57;12.03;;;7.17;;
48550;SDS011;34397;51.176;6.738;2023-03-01T10:17:35;11.17;;;6.63;;
48550;SDS011;34397;51.176;6.738;2023-03-01T10:20:21;10.63;;;6.60;;
48550;SDS011;34397;51.176;6.738;2023-03-01T10:22:54;13.20;;;7.70;;
48550;SDS011;34397;51.176;6.738;2023-03-01T10:25:34;14.13;;;8.02;;
48550;SDS011;34397;51.176;6.738;2023-03-01T10:28:23;14.48;;;7.10;;
48550;SDS011;34397;51.176;6.738;2023-03-01T10:31:02;11.80;;;7.77;;
48550;SDS011;34397;51.176;6.738;2023-03-01T10:36:09;10.90;;;7.28;;
48550;SDS011;34397;51.176;6.738;2023-03-01T10:38:48;9.90;;;6.75;;
48550;SDS011;34397;51.176;6.738;2023-03-01T10:41:24;13.82;;;7.88;;
48550;SDS011;34397;51.176;6.738;2023-03-01T10:43:59;12.18;;;7.38;;
48550;SDS011;34397;51.176;6.738;2023-03-01T10:46:31;13.32;;;7.72;;
48550;SDS011;34397;51.176;6.738;2023-03-01T10:49:06;13.38;;;7.32;;
48550;SDS011;34397;51.176;6.738;2023-03-01T10:51:45;11.93;;;7.82;;
48550;SDS011;34397;51.176;6.738;2023-03-01T10:54:20;13.20;;;6.88;;
48550;SDS011;34397;51.176;6.738;2023-03-01T10:56:56;10.57;;;6.35;;
48550;SDS011;34397;51.176;6.738;2023-03-01T10:59:32;10.27;;;7.15;;
48550;SDS011;34397;51.176;6.738;2023-03-01T11:02:15;10.25;;;6.45;;
48550;SDS011;34397;51.176;6.738;2023-03-01T11:04:56;9.18;;;6.68;;
48550;SDS011;34397;51.176;6.738;2023-03-01T11:07:30;8.52;;;6.05;;
48550;SDS011;34397;51.176;6.738;2023-03-01T11:10:18;8.10;;;5.93;;
48550;SDS011;34397;51.176;6.738;2023-03-01T11:12:53;10.25;;;6.70;;
48550;SDS011;34397;51.176;6.738;2023-03-01T11:15:39;9.18;;;6.53;;
48550;SDS011;34397;51.176;6.738;2023-03-01T11:18:18;11.02;;;6.68;;
48550;SDS011;34397;51.176;6.738;2023-03-01T11:20:53;9.45;;;6.85;;
48550;SDS011;34397;51.176;6.738;2023-03-01T11:23:27;10.07;;;6.95;;
48550;SDS011;34397;51.176;6.738;2023-03-01T11:26:01;7.85;;;6.55;;
48550;SDS011;34397;51.176;6.738;2023-03-01T11:28:37;8.35;;;6.18;;
48550;SDS011;34397;51.176;6.738;2023-03-01T11:31:14;10.45;;;5.80;;
48550;SDS011;34397;51.176;6.738;2023-03-01T11:33:49;7.78;;;6.40;;
48550;SDS011;34397;51.176;6.738;2023-03-01T11:36:28;8.07;;;6.40;;
48550;SDS011;34397;51.176;6.738;2023-03-01T11:39:11;7.72;;;6.68;;
48550;SDS011;34397;51.176;6.738;2023-03-01T11:41:56;9.48;;;6.70;;
48550;SDS011;34397;51.176;6.738;2023-03-01T11:44:36;10.48;;;6.88;;
48550;SDS011;34397;51.176;6.738;2023-03-01T11:47:17;8.23;;;6.18;;
48550;SDS011;34397;51.176;6.738;2023-03-01T11:50:15;8.55;;;6.43;;
48550;SDS011;34397;51.176;6.738;2023-03-01T11:52:57;9.98;;;6.55;;
48550;SDS011;34397;51.176;6.738;2023-03-01T11:55:51;9.63;;;6.47;;
48550;SDS011;34397;51.176;6.738;2023-03-01T11:58:39;9.23;;;6.60;;
48550;SDS011;34397;51.176;6.738;2023-03-01T12:01:31;9.02;;;6.80;;
48550;SDS011;34397;51.176;6.738;2023-03-01T12:04:22;8.90;;;6.90;;
48550;SDS011;34397;51.176;6.738;2023-03-01T12:07:20;8.95;;;6.38;;
48550;SDS011;34397;51.176;6.738;2023-03-01T12:10:13;8.95;;;6.90;;
48550;SDS011;34397;51.176;6.738;2023-03-01T12:12:58;8.98;;;6.82;;
48550;SDS011;34397;51.176;6.738;2023-03-01T12:21:56;8.90;;;6.28;;
48550;SDS011;34397;51.176;6.738;2023-03-01T12:24:47;8.02;;;6.47;;
48550;SDS011;34397;51.176;6.738;2023-03-01T12:27:51;9.63;;;6.55;;
48550;SDS011;34397;51.176;6.738;2023-03-01T12:30:46;8.70;;;6.43;;
48550;SDS011;34397;51.176;6.738;2023-03-01T12:33:39;7.55;;;6.30;;
48550;SDS011;34397;51.176;6.738;2023-03-01T12:39:26;7.18;;;5.80;;
48550;SDS011;34397;51.176;6.738;2023-03-01T12:42:16;8.93;;;6.43;;
48550;SDS011;34397;51.176;6.738;2023-03-01T12:45:02;6.93;;;5.50;;
48550;SDS011;34397;51.176;6.738;2023-03-01T12:50:59;8.70;;;5.82;;
48550;SDS011;34397;51.176;6.738;2023-03-01T12:53:36;9.35;;;5.90;;
48550;SDS011;34397;51.176;6.738;2023-03-01T12:56:15;11.10;;;5.60;;
48550;SDS011;34397;51.176;6.738;2023-03-01T12:58:55;8.18;;;5.60;;
48550;SDS011;34397;51.176;6.738;2023-03-01T13:01:39;7.22;;;4.95;;
48550;SDS011;34397;51.176;6.738;2023-03-01T13:04:22;8.70;;;5.35;;
48550;SDS011;34397;51.176;6.738;2023-03-01T13:07:11;15.02;;;5.22;;
48550;SDS011;34397;51.176;6.738;2023-03-01T13:09:55;6.55;;;5.15;;
48550;SDS011;34397;51.176;6.738;2023-03-01T13:12:49;5.95;;;4.82;;
48550;SDS011;34397;51.176;6.738;2023-03-01T13:15:41;7.15;;;5.25;;
48550;SDS011;34397;51.176;6.738;2023-03-01T13:18:32;7.72;;;4.93;;
48550;SDS011;34397;51.176;6.738;2023-03-01T13:21:04;6.75;;;5.10;;
48550;SDS011;34397;51.176;6.738;2023-03-01T13:23:37;6.18;;;4.72;;
48550;SDS011;34397;51.176;6.738;2023-03-01T13:26:12;5.80;;;4.70;;
48550;SDS011;34397;51.176;6.738;2023-03-01T13:28:56;6.45;;;5.07;;
48550;SDS011;34397;51.176;6.738;2023-03-01T13:37:32;6.85;;;4.88;;
48550;SDS011;34397;51.176;6.738;2023-03-01T13:43:38;5.85;;;4.78;;
48550;SDS011;34397;51.176;6.738;2023-03-01T13:46:16;10.27;;;4.95;;
48550;SDS011;34397;51.176;6.738;2023-03-01T13:48:54;6.07;;;4.38;;
48550;SDS011;34397;51.176;6.738;2023-03-01T13:51:28;6.80;;;4.25;;
48550;SDS011;34397;51.176;6.738;2023-03-01T13:54:00;5.90;;;4.72;;
48550;SDS011;34397;51.176;6.738;2023-03-01T13:59:12;7.47;;;5.03;;
48550;SDS011;34397;51.176;6.738;2023-03-01T14:01:53;6.32;;;5.10;;
48550;SDS011;34397;51.176;6.738;2023-03-01T14:04:26;7.38;;;4.90;;
48550;SDS011;34397;51.176;6.738;2023-03-01T14:07:11;6.40;;;5.10;;
48550;SDS011;34397;51.176;6.738;2023-03-01T14:09:44;7.03;;;4.97;;
48550;SDS011;34397;51.176;6.738;2023-03-01T14:12:21;6.75;;;4.90;;
48550;SDS011;34397;51.176;6.738;2023-03-01T14:15:08;7.63;;;4.88;;
48550;SDS011;34397;51.176;6.738;2023-03-01T14:17:51;6.40;;;4.78;;
48550;SDS011;34397;51.176;6.738;2023-03-01T14:20:37;6.15;;;4.80;;
48550;SDS011;34397;51.176;6.738;2023-03-01T14:23:12;5.85;;;4.68;;
48550;SDS011;34397;51.176;6.738;2023-03-01T14:25:48;6.15;;;4.93;;
48550;SDS011;34397;51.176;6.738;2023-03-01T14:28:23;6.93;;;4.78;;
48550;SDS011;34397;51.176;6.738;2023-03-01T14:31:01;7.50;;;5.43;;
48550;SDS011;34397;51.176;6.738;2023-03-01T14:33:35;10.15;;;4.95;;
48550;SDS011;34397;51.176;6.738;2023-03-01T14:36:11;7.15;;;5.30;;
48550;SDS011;34397;51.176;6.738;2023-03-01T14:38:45;7.28;;;4.95;;
48550;SDS011;34397;51.176;6.738;2023-03-01T14:41:18;7.63;;;5.20;;
48550;SDS011;34397;51.176;6.738;2023-03-01T14:43:53;7.55;;;4.88;;
48550;SDS011;34397;51.176;6.738;2023-03-01T14:46:30;6.30;;;4.82;;
48550;SDS011;34397;51.176;6.738;2023-03-01T14:49:09;8.35;;;5.00;;
48550;SDS011;34397;51.176;6.738;2023-03-01T14:51:46;9.77;;;4.90;;
48550;SDS011;34397;51.176;6.738;2023-03-01T14:54:24;8.18;;;5.10;;
48550;SDS011;34397;51.176;6.738;2023-03-01T14:56:59;6.25;;;5.00;;
48550;SDS011;34397;51.176;6.738;2023-03-01T14:59:32;6.75;;;5.30;;
48550;SDS011;34397;51.176;6.738;2023-03-01T15:02:08;7.88;;;5.20;;
48550;SDS011;34397;51.176;6.738;2023-03-01T15:04:49;7.25;;;4.88;;
48550;SDS011;34397;51.176;6.738;2023-03-01T15:07:22;7.50;;;4.80;;
48550;SDS011;34397;51.176;6.738;2023-03-01T15:10:02;6.30;;;4.70;;
48550;SDS011;34397;51.176;6.738;2023-03-01T15:12:38;7.25;;;4.78;;
48550;SDS011;34397;51.176;6.738;2023-03-01T15:18:13;7.75;;;4.90;;
48550;SDS011;34397;51.176;6.738;2023-03-01T15:20:50;6.68;;;4.90;;
48550;SDS011;34397;51.176;6.738;2023-03-01T15:23:23;7.40;;;4.85;;
48550;SDS011;34397;51.176;6.738;2023-03-01T15:25:57;9.45;;;5.35;;
48550;SDS011;34397;51.176;6.738;2023-03-01T15:28:31;5.80;;;4.53;;
48550;SDS011;34397;51.176;6.738;2023-03-01T15:31:11;7.60;;;5.10;;
48550;SDS011;34397;51.176;6.738;2023-03-01T15:33:50;10.07;;;5.32;;
48550;SDS011;34397;51.176;6.738;2023-03-01T15:36:31;7.00;;;4.95;;
48550;SDS011;34397;51.176;6.738;2023-03-01T15:42:13;6.15;;;4.85;;
48550;SDS011;34397;51.176;6.738;2023-03-01T15:45:09;7.32;;;5.18;;
48550;SDS011;34397;51.176;6.738;2023-03-01T15:47:51;6.68;;;4.88;;
48550;SDS011;34397;51.176;6.738;2023-03-01T15:50:28;7.60;;;4.68;;
48550;SDS011;34397;51.176;6.738;2023-03-01T15:53:05;7.55;;;4.97;;
48550;SDS011;34397;51.176;6.738;2023-03-01T15:55:42;7.85;;;5.10;;
48550;SDS011;34397;51.176;6.738;2023-03-01T15:58:16;7.47;;;4.97;;
48550;SDS011;34397;51.176;6.738;2023-03-01T16:00:51;7.68;;;4.55;;
48550;SDS011;34397;51.176;6.738;2023-03-01T16:03:26;8.13;;;4.82;;
48550;SDS011;34397;51.176;6.738;2023-03-01T16:05:58;6.18;;;4.78;;
48550;SDS011;34397;51.176;6.738;2023-03-01T16:08:32;8.23;;;4.85;;
48550;SDS011;34397;51.176;6.738;2023-03-01T16:11:04;7.50;;;4.78;;
48550;SDS011;34397;51.176;6.738;2023-03-01T16:13:37;6.85;;;4.55;;
48550;SDS011;34397;51.176;6.738;2023-03-01T16:16:09;7.45;;;4.65;;